CDT,Max TemperatureF,Mean TemperatureF,Min TemperatureF,Max Dew PointF,MeanDew PointF,Min DewpointF,Max Humidity, Mean Humidity, Min Humidity, Max Sea Level PressureIn, Mean Sea Level PressureIn, Min Sea Level PressureIn, Max VisibilityMiles, Mean VisibilityMiles, Min VisibilityMiles, Max Wind SpeedMPH, Mean Wind SpeedMPH, Max Gust SpeedMPH,PrecipitationIn, CloudCover, Events, WindDirDegrees
2011-9-1,96,83,70,72,69,64,100,68,35,29.89,29.81,29.70,10,6,1,22,11,28,0.00,1,,169
2011-9-2,84,76,67,73,70,66,100,83,65,29.94,29.87,29.73,10,7,2,35,6,46,0.15,3,Rain-Thunderstorm,229
2011-9-3,77,66,54,70,65,51,100,84,68,30.01,29.90,29.85,10,7,2,20,8,26,0.35,6,Rain-Thunderstorm,255
2011-9-4,69,58,46,51,49,45,93,71,49,30.20,30.11,30.02,10,10,10,25,12,30,0.00,1,,323
2011-9-5,71,55,39,49,44,39,96,67,37,30.26,30.20,30.15,10,10,8,10,2,15,0.00,0,,334
2011-9-6,72,55,37,49,43,37,100,69,38,30.26,30.22,30.19,10,7,0,10,3,16,0.00,0,Fog,107
2011-9-7,75,58,40,51,44,39,100,69,38,30.33,30.28,30.24,10,7,0,12,3,22,0.00,1,Fog,35
2011-9-8,83,65,47,58,53,46,100,69,37,30.31,30.23,30.11,10,9,5,15,7,21,0.00,1,,350
2011-9-9,84,69,53,60,55,51,100,69,37,30.10,30.04,29.97,10,10,8,15,6,28,0.00,0,,10
2011-9-10,85,67,48,57,51,48,100,65,29,30.11,30.05,30.02,10,9,2,12,3,17,0.00,0,,50
2011-9-11,89,70,51,58,54,49,93,61,29,30.05,30.01,29.96,10,10,9,18,4,21,0.00,1,,274
2011-9-12,91,75,58,60,57,52,90,60,30,30.00,29.86,29.73,10,10,10,30,15,40,0.00,0,,237
2011-9-13,71,59,47,50,44,38,93,62,31,30.09,30.02,29.91,10,10,10,16,8,23,T,0,Rain,322
2011-9-14,60,47,34,47,34,25,82,55,28,30.38,30.23,30.06,10,10,10,23,12,31,0.00,1,,338
2011-9-15,59,43,26,32,26,18,92,57,21,30.48,30.41,30.33,10,10,2,14,5,17,0.00,0,,103
2011-9-16,54,50,46,43,38,32,80,69,58,30.36,30.30,30.25,10,10,10,16,8,23,T,7,Rain,147
2011-9-17,62,56,49,47,42,37,80,61,42,30.25,30.19,30.10,10,10,6,21,11,29,T,8,Rain,138
2011-9-18,59,57,55,58,55,46,100,84,67,30.10,30.00,29.96,10,4,1,15,7,20,0.32,8,Rain,192
2011-9-19,76,61,45,57,50,36,100,62,23,30.09,30.02,29.98,10,6,0,16,5,21,0.00,4,Fog,305
2011-9-20,75,61,47,56,47,41,86,61,35,29.98,29.87,29.80,10,10,6,29,15,37,0.04,2,Rain,213
2011-9-21,61,56,50,47,45,44,80,71,62,30.12,29.97,29.83,10,10,10,29,17,36,0.00,7,,284
2011-9-22,60,52,43,46,44,38,93,70,47,30.19,30.14,30.09,10,10,8,14,6,21,T,7,Rain,323
2011-9-23,65,50,34,43,39,34,100,72,43,30.19,30.13,30.06,10,10,6,12,4,18,0.00,3,,12
2011-9-24,65,49,32,46,35,31,100,71,42,30.09,30.06,30.00,10,6,0,15,4,18,0.00,3,Fog,44
2011-9-25,67,52,36,47,42,35,96,69,42,30.05,29.97,29.89,10,10,8,15,6,21,0.00,5,,22
2011-9-26,65,55,44,57,51,44,100,82,63,29.89,29.81,29.72,10,8,2,31,14,37,0.08,6,Rain,345
2011-9-27,67,58,48,55,53,48,100,87,73,29.95,29.88,29.81,10,9,6,15,7,21,0.00,7,,343
2011-9-28,81,67,52,57,53,46,100,66,32,29.89,29.85,29.78,10,8,2,12,4,20,0.00,4,,310
2011-9-29,71,61,50,53,42,36,100,65,29,30.08,29.89,29.76,10,10,5,47,22,59,T,1,,313
2011-9-30,66,51,35,44,37,27,92,59,25,30.27,30.19,30.09,10,10,10,22,12,30,0.00,0,,344